Maney, United Kingdom
Current Conditions -  °F | °C
As of 6:20 PM on Sunday 21 Dec 2014 (Local Time) from EGBB Reporting Station
Few Clouds Few Clouds  
Wind Chill: 50°   Ceiling: Unl
Heat Index: 50°   Visibility: 6mi
Dew Point: 46°   Wind: 8mph
Humidity: 87%   Direction: 200°SSW
Pressure: 30.06"   Gusts: NA
Location:  52.54°N, 1.86°W
Report Text: EGBB 211820Z 20007KT 150V250 9999 FEW018 10/08 Q1018
Loading
Personal Weather Stations






























Interactive Weather Map New forecast layout! Learn more

10-Day Weather Forecast

Advertisements
Track Severe Weather on mobile